Time;durP1;ratioP1;P1;durP2;ratioP2;P2;SDS_P1;SDS_P2;PMS_P1;PMS_P2;Temp;Humidity;BMP_temperature;BMP_pressure;BME280_temperature;BME280_humidity;BME280_pressure;Samples;Min_cycle;Max_cycle;Signal;HPM_P1;HPM_P2
2023/04/11 00:00:26;;;;;;;24.45;6.18;;;;;;;8.59;87.89;100831.19;4934863;28;20083;-74
2023/04/11 00:02:53;;;;;;;22.48;5.50;;;;;;;8.59;87.85;100819.84;4924761;28;20084;-74
2023/04/11 00:05:19;;;;;;;25.08;5.85;;;;;;;8.57;86.90;100817.25;4945949;28;20471;-74
2023/04/11 00:07:45;;;;;;;19.55;5.88;;;;;;;8.56;86.98;100819.88;4933318;28;20542;-74
2023/04/11 00:10:10;;;;;;;21.50;5.95;;;;;;;8.57;86.64;100816.38;4930571;28;20138;-74
2023/04/11 00:12:36;;;;;;;26.35;6.03;;;;;;;8.52;86.92;100820.75;4922571;28;20490;-70
2023/04/11 00:15:01;;;;;;;21.35;6.55;;;;;;;8.49;85.75;100827.72;4932964;28;20126;-69
2023/04/11 00:17:30;;;;;;;28.65;6.93;;;;;;;8.45;85.44;100822.53;4923917;28;20093;-69
2023/04/11 00:19:57;;;;;;;23.83;5.93;;;;;;;8.38;86.04;100819.03;4922431;29;20039;-69
2023/04/11 00:22:23;;;;;;;28.27;8.18;;;;;;;8.37;85.58;100832.09;4939059;28;20486;-69
2023/04/11 00:24:49;;;;;;;24.80;6.75;;;;;;;8.37;86.18;100835.56;4921027;28;20039;-69
2023/04/11 00:27:14;;;;;;;23.85;6.57;;;;;;;8.33;86.57;100834.72;4937654;28;20067;-69
2023/04/11 00:29:40;;;;;;;30.38;6.97;;;;;;;8.30;85.99;100829.50;4937988;28;20172;-69
2023/04/11 00:32:06;;;;;;;31.40;6.65;;;;;;;8.26;86.22;100833.00;4923078;28;20513;-69
2023/04/11 00:34:33;;;;;;;23.70;6.70;;;;;;;8.26;85.70;100835.59;4933210;28;20043;-69
2023/04/11 00:36:58;;;;;;;37.10;7.35;;;;;;;8.24;85.80;100844.31;4928842;28;20045;-69
2023/04/11 00:39:25;;;;;;;33.25;7.20;;;;;;;8.21;85.97;100839.94;4922941;28;20046;-69
2023/04/11 00:41:50;;;;;;;23.25;6.53;;;;;;;8.15;86.29;100839.97;4939286;28;20031;-69
2023/04/11 00:44:16;;;;;;;22.60;7.00;;;;;;;8.08;86.22;100844.31;4925345;28;20115;-69
2023/04/11 00:46:43;;;;;;;27.35;6.97;;;;;;;8.06;86.50;100855.63;4924172;28;20176;-74
2023/04/11 00:49:10;;;;;;;28.05;7.15;;;;;;;7.98;86.81;100846.06;4943475;28;20049;-74
2023/04/11 00:51:35;;;;;;;24.13;6.65;;;;;;;7.98;87.07;100848.69;4941738;28;20039;-70
2023/04/11 00:54:01;;;;;;;29.15;7.78;;;;;;;7.94;86.72;100852.19;4945741;28;20039;-70
2023/04/11 00:56:30;;;;;;;27.60;7.03;;;;;;;7.90;86.72;100849.56;4942145;28;20023;-69
2023/04/11 00:58:56;;;;;;;28.80;7.47;;;;;;;7.86;86.56;100853.94;4905533;28;20082;-69
2023/04/11 01:01:24;;;;;;;29.23;7.03;;;;;;;7.86;86.84;100845.22;4936310;28;20058;-69
2023/04/11 01:03:50;;;;;;;31.52;7.53;;;;;;;7.85;87.31;100846.97;4938910;28;20535;-69
2023/04/11 01:06:18;;;;;;;33.15;7.72;;;;;;;7.84;86.79;100850.44;4924282;28;20039;-69
2023/04/11 01:08:46;;;;;;;30.90;7.70;;;;;;;7.82;86.46;100852.19;4925699;28;20422;-70
2023/04/11 01:11:15;;;;;;;26.50;7.20;;;;;;;7.76;86.97;100845.22;4946203;28;20050;-69
2023/04/11 01:13:41;;;;;;;25.75;6.90;;;;;;;7.75;86.63;100851.31;4943621;28;20066;-69
2023/04/11 01:16:08;;;;;;;30.58;7.82;;;;;;;7.74;87.01;100846.97;4932296;28;20122;-69
2023/04/11 01:18:35;;;;;;;28.90;7.68;;;;;;;7.77;87.00;100849.59;4936234;28;20448;-69
2023/04/11 01:21:01;;;;;;;29.40;7.43;;;;;;;7.79;87.41;100846.97;4941639;28;20202;-69
2023/04/11 01:23:27;;;;;;;27.27;7.25;;;;;;;7.81;87.40;100845.22;4923898;28;20134;-69
2023/04/11 01:25:52;;;;;;;23.73;6.55;;;;;;;7.82;86.72;100849.56;4938883;28;20039;-69
2023/04/11 01:28:19;;;;;;;31.83;7.05;;;;;;;7.80;86.76;100833.91;4938868;28;20392;-69
2023/04/11 01:30:45;;;;;;;34.55;7.03;;;;;;;7.80;86.81;100843.47;4944830;28;20035;-69
2023/04/11 01:33:11;;;;;;;30.90;7.18;;;;;;;7.79;87.15;100837.38;4922446;28;20039;-69
2023/04/11 01:35:37;;;;;;;33.97;7.03;;;;;;;7.76;87.34;100846.97;4935663;28;20125;-69
2023/04/11 01:38:03;;;;;;;34.15;6.22;;;;;;;7.74;87.14;100843.47;4942158;28;20126;-70
2023/04/11 01:40:34;;;;;;;28.88;5.95;;;;;;;7.72;87.90;100846.09;4944060;28;20458;-69
2023/04/11 01:43:02;;;;;;;29.38;6.57;;;;;;;7.68;87.97;100854.78;4946139;28;20031;-70
2023/04/11 01:45:28;;;;;;;26.35;6.82;;;;;;;7.66;87.08;100851.31;4922181;28;20078;-69
2023/04/11 01:47:55;;;;;;;31.20;7.22;;;;;;;7.61;87.60;100847.81;4905278;28;20051;-69
2023/04/11 01:50:21;;;;;;;26.60;7.03;;;;;;;7.60;87.21;100857.41;4947258;28;20051;-69
2023/04/11 01:52:48;;;;;;;27.33;6.65;;;;;;;7.57;86.54;100865.22;4943354;28;20053;-69
2023/04/11 01:55:13;;;;;;;32.58;7.53;;;;;;;7.54;87.23;100859.13;4925318;28;20053;-68
2023/04/11 01:57:39;;;;;;;29.67;5.93;;;;;;;7.52;86.73;100879.13;4920719;29;20051;-69
2023/04/11 02:00:05;;;;;;;31.23;6.68;;;;;;;7.47;86.89;100871.31;4949387;28;20042;-75
2023/04/11 02:02:31;;;;;;;31.83;5.93;;;;;;;7.44;87.08;100871.25;4914357;28;20043;-74
2023/04/11 02:04:56;;;;;;;29.98;6.22;;;;;;;7.43;87.25;100879.97;4947193;28;20495;-75
2023/04/11 02:07:22;;;;;;;26.80;5.82;;;;;;;7.34;87.58;100880.84;4932292;29;20035;-74
2023/04/11 02:09:49;;;;;;;28.48;6.30;;;;;;;7.32;87.68;100873.88;4935577;28;20054;-74
2023/04/11 02:12:14;;;;;;;26.08;7.03;;;;;;;7.31;87.89;100885.16;4960921;28;20407;-74
2023/04/11 02:14:41;;;;;;;30.27;6.53;;;;;;;7.28;88.39;100878.19;4951068;28;20042;-74
2023/04/11 02:17:11;;;;;;;29.08;6.47;;;;;;;7.27;88.14;100879.94;4937619;29;20046;-75
2023/04/11 02:19:40;;;;;;;27.75;5.80;;;;;;;7.28;88.19;100881.69;4940257;29;20575;-75
2023/04/11 02:22:07;;;;;;;31.48;6.18;;;;;;;7.27;88.00;100872.13;4953017;28;20042;-75
2023/04/11 02:24:33;;;;;;;32.50;6.88;;;;;;;7.27;88.31;100881.69;4930868;29;20090;-74
2023/04/11 02:27:00;;;;;;;30.42;7.57;;;;;;;7.31;87.75;100888.63;4951563;28;20501;-74
2023/04/11 02:29:26;;;;;;;34.38;6.20;;;;;;;7.31;87.74;100895.59;4947996;28;20191;-74
2023/04/11 02:31:52;;;;;;;30.17;6.75;;;;;;;7.29;88.27;100888.63;4932812;29;20205;-74
2023/04/11 02:34:18;;;;;;;32.83;6.55;;;;;;;7.27;88.96;100884.28;4947224;29;20524;-74
2023/04/11 02:36:44;;;;;;;28.88;5.97;;;;;;;7.28;88.01;100886.91;4944523;28;20129;-74
2023/04/11 02:39:10;;;;;;;27.77;6.95;;;;;;;7.30;88.28;100879.09;4957502;28;20043;-74
2023/04/11 02:41:42;;;;;;;28.13;5.93;;;;;;;7.31;87.55;100888.63;4923471;29;20403;-75
2023/04/11 02:44:09;;;;;;;27.98;6.28;;;;;;;7.29;88.06;100883.41;4935861;28;20454;-75
2023/04/11 02:46:35;;;;;;;32.20;7.40;;;;;;;7.29;87.45;100882.53;4938616;29;20050;-75
2023/04/11 02:49:01;;;;;;;35.40;6.90;;;;;;;7.28;88.04;100894.72;4951663;28;20054;-74
2023/04/11 02:51:27;;;;;;;21.88;6.20;;;;;;;7.29;88.36;100891.22;4954944;28;20039;-74
2023/04/11 02:53:53;;;;;;;26.73;5.63;;;;;;;7.28;87.79;100891.22;4951295;28;20051;-74
2023/04/11 02:56:18;;;;;;;24.75;6.00;;;;;;;7.27;87.41;100894.72;4938867;29;20058;-74
2023/04/11 02:58:44;;;;;;;24.55;6.10;;;;;;;7.25;87.31;100902.50;4941817;28;20109;-74
2023/04/11 03:01:10;;;;;;;31.58;7.00;;;;;;;7.21;87.45;100900.78;4957599;28;20038;-74
2023/04/11 03:03:37;;;;;;;25.20;5.65;;;;;;;7.18;87.17;100905.97;4938844;28;20049;-74
2023/04/11 03:06:05;;;;;;;29.92;5.75;;;;;;;7.16;87.00;100896.41;4921744;29;20046;-74
2023/04/11 03:08:31;;;;;;;32.42;6.28;;;;;;;7.11;86.71;100904.19;4941609;28;20043;-74
2023/04/11 03:10:56;;;;;;;31.20;6.00;;;;;;;7.09;87.33;100908.53;4923174;29;20042;-75
2023/04/11 03:13:22;;;;;;;23.10;5.03;;;;;;;7.05;86.97;100898.97;4937993;28;20050;-74
2023/04/11 03:15:47;;;;;;;25.25;4.95;;;;;;;6.98;87.08;100908.50;4922920;29;20400;-74
2023/04/11 03:18:13;;;;;;;25.02;4.65;;;;;;;6.96;86.55;100906.78;4934853;28;20047;-74
2023/04/11 03:20:38;;;;;;;23.10;4.80;;;;;;;6.93;86.62;100913.69;4923314;29;20046;-74
2023/04/11 03:23:04;;;;;;;25.27;4.85;;;;;;;6.93;87.13;100920.66;4939192;28;20043;-74
2023/04/11 03:25:29;;;;;;;24.05;4.57;;;;;;;6.92;87.47;100924.09;4938876;29;20532;-75
2023/04/11 03:27:54;;;;;;;25.52;4.72;;;;;;;6.96;86.92;100925.00;4938773;28;20046;-74
2023/04/11 03:30:20;;;;;;;24.45;4.93;;;;;;;6.99;87.33;100932.81;4922792;29;20507;-75
2023/04/11 03:32:46;;;;;;;21.85;5.03;;;;;;;7.00;87.53;100934.59;4955425;28;20054;-74
2023/04/11 03:35:11;;;;;;;25.55;4.50;;;;;;;6.98;87.53;100944.09;4941492;28;20034;-75
2023/04/11 03:37:36;;;;;;;23.30;4.78;;;;;;;6.99;87.41;100938.03;4941894;28;20146;-74
2023/04/11 03:40:03;;;;;;;20.73;3.90;;;;;;;7.00;87.10;100938.03;4925910;28;20451;-75
2023/04/11 03:42:31;;;;;;;24.35;4.50;;;;;;;7.03;86.94;100943.25;4926135;28;20145;-74
2023/04/11 03:44:56;;;;;;;20.83;4.90;;;;;;;7.03;86.00;100942.41;4922744;29;20398;-74
2023/04/11 03:47:21;;;;;;;17.83;3.45;;;;;;;7.04;85.35;100937.19;4934218;28;20451;-73
2023/04/11 03:49:47;;;;;;;18.30;3.80;;;;;;;7.07;85.28;100945.03;4922612;29;20055;-74
2023/04/11 03:52:13;;;;;;;15.77;3.45;;;;;;;7.07;85.13;100938.94;4922833;28;20436;-74
2023/04/11 03:54:39;;;;;;;19.52;3.40;;;;;;;7.08;85.13;100945.88;4924047;28;20035;-74
2023/04/11 03:57:04;;;;;;;19.85;2.70;;;;;;;7.08;85.38;100952.00;4941099;28;20097;-74
2023/04/11 03:59:30;;;;;;;17.70;3.38;;;;;;;7.08;84.79;100951.09;4923281;28;20035;-74
2023/04/11 04:01:55;;;;;;;15.52;3.15;;;;;;;7.08;85.16;100952.00;4943806;28;20403;-74
2023/04/11 04:04:21;;;;;;;19.83;3.33;;;;;;;7.09;84.63;100948.50;4936309;29;20380;-74
2023/04/11 04:06:46;;;;;;;13.07;2.85;;;;;;;7.10;84.96;100959.81;4909291;29;20040;-74
2023/04/11 04:09:12;;;;;;;19.77;3.53;;;;;;;7.08;84.53;100962.41;4912011;29;20031;-74
2023/04/11 04:11:37;;;;;;;20.27;3.67;;;;;;;7.09;84.22;100958.06;4925013;29;20039;-75
2023/04/11 04:14:02;;;;;;;18.67;2.78;;;;;;;7.07;84.61;100959.81;4927103;29;20034;-75
2023/04/11 04:16:28;;;;;;;13.23;3.10;;;;;;;7.06;84.34;100958.91;4938358;29;20388;-74
2023/04/11 04:18:53;;;;;;;16.88;3.17;;;;;;;7.02;84.55;100951.94;4926206;29;20079;-75
2023/04/11 04:21:19;;;;;;;19.17;3.08;;;;;;;7.00;84.29;100950.22;4924066;29;20046;-74
2023/04/11 04:23:47;;;;;;;17.30;3.08;;;;;;;6.99;83.99;100957.13;4941850;29;20066;-74
2023/04/11 04:26:15;;;;;;;15.60;2.90;;;;;;;6.92;83.90;100956.25;4924207;28;20105;-73
2023/04/11 04:28:44;;;;;;;18.58;3.03;;;;;;;6.88;83.84;100964.03;4939860;28;20057;-75
2023/04/11 04:31:11;;;;;;;18.77;3.28;;;;;;;6.80;83.27;100960.53;4936870;28;20043;-75
2023/04/11 04:33:37;;;;;;;16.75;3.30;;;;;;;6.81;83.73;100973.56;4933710;29;20039;-74
2023/04/11 04:36:03;;;;;;;16.50;3.00;;;;;;;6.78;84.40;100970.94;4937880;28;20472;-75
2023/04/11 04:38:29;;;;;;;19.17;3.35;;;;;;;6.74;84.23;100983.06;4933442;29;20046;-74
2023/04/11 04:40:55;;;;;;;19.45;3.67;;;;;;;6.71;83.94;100987.34;4933790;29;20027;-75
2023/04/11 04:43:22;;;;;;;25.05;4.32;;;;;;;6.66;84.16;100986.47;4932938;28;20428;-73
2023/04/11 04:45:48;;;;;;;17.10;3.63;;;;;;;6.58;85.21;100992.50;4945414;29;20027;-75
2023/04/11 04:48:16;;;;;;;18.40;3.33;;;;;;;6.58;85.07;100994.25;4932492;29;20138;-75
2023/04/11 04:50:44;;;;;;;19.40;3.78;;;;;;;6.55;85.10;100995.09;4935006;29;20130;-74
2023/04/11 04:53:09;;;;;;;17.08;3.63;;;;;;;6.52;84.58;100997.69;4928911;29;20043;-69
2023/04/11 04:55:35;;;;;;;17.67;3.42;;;;;;;6.49;84.93;100997.63;4934746;28;20051;-69
2023/04/11 04:58:00;;;;;;;16.60;3.50;;;;;;;6.45;85.33;101008.91;4921591;28;20129;-69
2023/04/11 05:00:26;;;;;;;18.38;3.88;;;;;;;6.42;85.29;101011.47;4922215;29;20076;-68
2023/04/11 05:02:53;;;;;;;20.83;4.15;;;;;;;6.39;85.41;101016.66;4936330;29;20142;-69
2023/04/11 05:05:19;;;;;;;16.73;3.75;;;;;;;6.35;85.54;101014.88;4933988;28;20035;-69
2023/04/11 05:07:44;;;;;;;18.77;3.45;;;;;;;6.36;86.11;101020.09;4951278;28;20065;-69
2023/04/11 05:10:10;;;;;;;24.92;4.38;;;;;;;6.35;85.84;101030.47;4924167;28;20050;-69
2023/04/11 05:12:35;;;;;;;22.85;3.47;;;;;;;6.34;86.06;101028.75;4935796;29;20494;-69
2023/04/11 05:15:01;;;;;;;15.75;3.92;;;;;;;6.35;85.68;101030.47;4924429;28;20042;-69
2023/04/11 05:17:28;;;;;;;16.80;3.92;;;;;;;6.35;85.49;101035.69;4950295;28;20039;-68
2023/04/11 05:19:55;;;;;;;19.92;3.50;;;;;;;6.36;86.33;101043.50;4944601;28;20439;-69
2023/04/11 05:22:20;;;;;;;16.92;3.28;;;;;;;6.36;86.26;101040.91;4924316;29;20035;-69
2023/04/11 05:24:46;;;;;;;20.33;4.15;;;;;;;6.38;85.33;101035.75;4936787;28;20420;-69
2023/04/11 05:27:12;;;;;;;16.83;3.58;;;;;;;6.38;85.42;101040.94;4917666;29;20188;-69
2023/04/11 05:29:38;;;;;;;18.23;3.05;;;;;;;6.40;85.28;101052.22;4921247;28;20039;-69
2023/04/11 05:32:04;;;;;;;15.13;2.78;;;;;;;6.43;84.95;101047.06;4947897;28;20056;-69
2023/04/11 05:34:30;;;;;;;19.77;3.35;;;;;;;6.47;85.25;101055.78;4920839;28;20559;-69
2023/04/11 05:36:55;;;;;;;17.48;3.65;;;;;;;6.52;85.36;101049.75;4944403;28;20038;-69
2023/04/11 05:39:21;;;;;;;20.08;3.28;;;;;;;6.56;85.30;101051.50;4927525;28;20035;-69
2023/04/11 05:41:46;;;;;;;19.20;3.42;;;;;;;6.63;85.08;101059.38;4914047;29;20051;-69
2023/04/11 05:44:11;;;;;;;18.00;4.00;;;;;;;6.66;85.26;101056.78;4925055;28;20483;-69
2023/04/11 05:46:37;;;;;;;16.80;3.20;;;;;;;6.71;84.44;101065.50;4927794;29;20479;-69
2023/04/11 05:49:03;;;;;;;16.13;3.22;;;;;;;6.76;84.74;101064.66;4952861;28;20057;-69
2023/04/11 05:51:28;;;;;;;12.88;2.92;;;;;;;6.79;85.08;101073.38;4940085;29;20114;-69
2023/04/11 05:53:54;;;;;;;17.00;3.85;;;;;;;6.85;84.77;101074.31;4939056;28;20047;-69
2023/04/11 05:56:19;;;;;;;27.02;3.75;;;;;;;6.93;84.82;101082.16;4939651;29;20023;-69
2023/04/11 05:58:44;;;;;;;20.35;2.97;;;;;;;7.00;85.27;101088.31;4943045;28;20065;-68
2023/04/11 06:01:17;;;;;;;20.33;2.90;;;;;;;7.10;84.63;101097.94;4936818;29;20402;-69
2023/04/11 06:03:42;;;;;;;12.82;2.85;;;;;;;7.26;85.04;101101.50;4954507;28;20043;-69
2023/04/11 06:06:08;;;;;;;12.90;2.70;;;;;;;7.43;84.78;101104.22;4941707;28;20027;-69
2023/04/11 06:08:33;;;;;;;13.45;3.00;;;;;;;7.60;84.78;101097.34;4921894;28;20051;-69
2023/04/11 06:10:59;;;;;;;16.50;3.20;;;;;;;7.81;84.55;101106.09;4949951;29;20039;-75
2023/04/11 06:13:24;;;;;;;15.73;3.28;;;;;;;7.90;83.54;101100.94;4919202;28;20501;-75
2023/04/11 06:15:50;;;;;;;17.10;3.35;;;;;;;8.03;82.90;101104.47;4924054;29;20510;-74
2023/04/11 06:18:15;;;;;;;16.90;2.90;;;;;;;8.14;81.74;101104.47;4934305;28;20510;-74
2023/04/11 06:20:41;;;;;;;17.08;3.72;;;;;;;8.22;81.73;101113.19;4937039;28;20047;-69
2023/04/11 06:23:06;;;;;;;16.90;2.53;;;;;;;8.25;80.46;101107.97;4946691;28;20054;-69
2023/04/11 06:25:32;;;;;;;13.98;3.03;;;;;;;8.33;80.62;101108.00;4956174;28;20372;-69
2023/04/11 06:28:00;;;;;;;15.85;2.85;;;;;;;8.45;81.27;101115.03;4937589;28;20039;-69
2023/04/11 06:30:25;;;;;;;11.43;2.58;;;;;;;8.56;80.62;101115.91;4939882;28;20034;-69
2023/04/11 06:32:51;;;;;;;15.18;2.83;;;;;;;8.58;79.26;101123.75;4949843;28;20061;-69
2023/04/11 06:35:19;;;;;;;14.23;2.60;;;;;;;8.56;78.01;101118.53;4939477;28;20181;-69
2023/04/11 06:37:45;;;;;;;16.30;3.00;;;;;;;8.82;81.01;101122.88;4942222;28;20047;-69
2023/04/11 06:40:11;;;;;;;18.83;3.00;;;;;;;9.02;79.05;101118.53;4930279;29;20031;-70
2023/04/11 06:42:36;;;;;;;20.10;3.17;;;;;;;9.52;82.57;101126.25;4938883;28;20061;-70
2023/04/11 06:45:03;;;;;;;12.63;3.15;;;;;;;9.84;79.23;101120.03;4927962;28;20475;-69
2023/04/11 06:47:28;;;;;;;15.20;3.35;;;;;;;10.08;76.55;101121.66;4947378;28;20053;-71
2023/04/11 06:49:54;;;;;;;22.60;4.55;;;;;;;10.36;75.21;101119.81;4941737;28;20392;-70
2023/04/11 06:52:20;;;;;;;12.27;2.53;;;;;;;10.67;72.53;101129.19;4927993;28;20039;-70
2023/04/11 06:54:46;;;;;;;13.75;2.72;;;;;;;10.97;72.80;101128.06;4930264;28;20054;-70
2023/04/11 06:57:12;;;;;;;14.63;2.72;;;;;;;11.22;70.49;101131.34;4943885;28;20043;-70
2023/04/11 06:59:38;;;;;;;15.27;3.15;;;;;;;11.52;69.34;101129.31;4932491;28;20053;-70
2023/04/11 07:02:03;;;;;;;16.45;3.03;;;;;;;11.47;66.66;101141.59;4938606;28;20051;-71
2023/04/11 07:04:29;;;;;;;12.50;3.10;;;;;;;11.48;66.02;101145.06;4919634;29;20039;-77
2023/04/11 07:06:55;;;;;;;16.65;3.13;;;;;;;11.79;68.26;101146.50;4939476;28;20062;-76
2023/04/11 07:09:20;;;;;;;11.35;2.53;;;;;;;11.75;65.59;101143.88;4928515;29;20050;-75
2023/04/11 07:11:45;;;;;;;11.45;2.92;;;;;;;11.81;64.70;101130.72;4946425;28;20039;-76
2023/04/11 07:14:11;;;;;;;8.98;2.08;;;;;;;12.21;64.48;101137.22;4937018;29;20135;-75
2023/04/11 07:16:37;;;;;;;10.85;3.03;;;;;;;12.53;63.62;101149.03;4923371;28;20043;-76
2023/04/11 07:19:02;;;;;;;9.32;2.65;;;;;;;12.51;63.36;101150.81;4918880;28;20126;-75
2023/04/11 07:21:31;;;;;;;11.45;2.80;;;;;;;13.00;64.46;101160.56;4937575;28;20039;-75
2023/04/11 07:23:56;;;;;;;11.88;3.03;;;;;;;12.87;60.95;101159.03;4922254;29;20074;-76
2023/04/11 07:26:22;;;;;;;12.68;2.65;;;;;;;13.32;61.37;101164.41;4938970;28;20071;-76
2023/04/11 07:28:48;;;;;;;12.77;3.03;;;;;;;13.38;60.25;101161.69;4936195;29;20047;-76
2023/04/11 07:31:18;;;;;;;11.65;2.50;;;;;;;13.16;60.81;101159.41;4947010;28;20047;-76
2023/04/11 07:33:44;;;;;;;12.07;2.28;;;;;;;13.26;59.31;101161.88;4940649;28;20190;-77
2023/04/11 07:36:10;;;;;;;10.52;3.03;;;;;;;13.17;60.68;101179.56;4937048;28;20130;-76
2023/04/11 07:38:36;;;;;;;12.88;2.50;;;;;;;12.87;59.20;101169.53;4929025;29;20031;-74
2023/04/11 07:41:03;;;;;;;10.43;2.38;;;;;;;12.55;59.11;101174.41;4941098;28;20039;-76
2023/04/11 07:43:29;;;;;;;12.50;2.45;;;;;;;12.48;59.65;101180.63;4929834;29;20071;-75
2023/04/11 07:45:56;;;;;;;12.73;2.55;;;;;;;12.37;60.07;101178.19;4951173;28;20050;-76
2023/04/11 07:48:22;;;;;;;11.90;2.47;;;;;;;12.63;62.57;101174.31;4921861;29;20066;-77
2023/04/11 07:50:48;;;;;;;12.05;2.45;;;;;;;12.94;61.80;101174.69;4952965;28;20478;-76
2023/04/11 07:53:13;;;;;;;9.30;2.13;;;;;;;12.64;59.68;101186.53;4945609;28;20122;-70
2023/04/11 07:55:39;;;;;;;12.93;2.85;;;;;;;12.59;59.99;101181.34;4932035;28;20050;-70
2023/04/11 07:58:05;;;;;;;12.60;2.15;;;;;;;12.56;60.43;101180.56;4925429;28;20031;-70
2023/04/11 08:00:32;;;;;;;10.68;2.40;;;;;;;12.67;61.73;101172.50;4955731;28;20033;-70
2023/04/11 08:03:05;;;;;;;11.25;2.35;;;;;;;13.06;60.00;101180.63;4937668;28;20077;-70
2023/04/11 08:05:32;;;;;;;9.60;2.28;;;;;;;13.15;58.47;101186.59;4943121;28;20078;-69
2023/04/11 08:07:58;;;;;;;9.40;2.30;;;;;;;13.04;57.26;101195.59;4936692;28;20050;-70
2023/04/11 08:10:24;;;;;;;15.02;2.92;;;;;;;12.79;57.44;101195.97;4943582;28;20035;-70
2023/04/11 08:12:49;;;;;;;13.32;2.65;;;;;;;13.12;59.65;101202.44;4932152;28;20043;-69
2023/04/11 08:15:15;;;;;;;10.68;2.28;;;;;;;12.71;55.40;101195.22;4930253;28;20035;-69
2023/04/11 08:17:42;;;;;;;8.52;2.20;;;;;;;12.55;56.13;101202.47;5003340;23;20395;-76
2023/04/11 08:20:10;;;;;;;8.60;2.55;;;;;;;12.50;58.43;101206.91;5040820;23;20062;-71
2023/04/11 08:25:07;;;;;;;9.85;2.30;;;;;;;12.30;57.18;101208.06;5241340;23;20048;-70
2023/04/11 08:27:32;;;;;;;16.15;3.08;;;;;;;12.26;57.58;101209.84;5186079;23;20426;-70
2023/04/11 08:29:59;;;;;;;11.95;2.53;;;;;;;12.59;59.54;101222.56;5275012;23;20455;31
2023/04/11 08:35:41;;;;;;;12.75;2.17;;;;;;;12.53;58.58;101233.13;5281120;23;20055;31
2023/04/11 08:38:07;;;;;;;13.55;2.00;;;;;;;12.34;56.95;101225.53;5060188;23;20022;-70
2023/04/11 08:43:16;;;;;;;8.80;2.00;;;;;;;12.06;57.05;101233.72;5237219;23;20051;-75
2023/04/11 08:51:11;;;;;;;9.65;2.00;;;;;;;12.39;57.14;101244.72;2627917;23;20196;31
2023/04/11 08:53:37;;;;;;;9.43;1.75;;;;;;;12.22;54.92;101239.66;4967180;23;20067;-69
2023/04/11 08:56:03;;;;;;;12.45;2.08;;;;;;;12.24;55.88;101240.53;5009225;23;20022;-71
2023/04/11 09:03:51;;;;;;;11.65;2.20;;;;;;;12.20;57.66;101235.34;5131793;23;20451;-75
2023/04/11 09:06:16;;;;;;;12.73;2.05;;;;;;;12.74;60.67;101217.09;4906935;29;20439;-75
2023/04/11 09:08:42;;;;;;;11.30;2.40;;;;;;;13.04;57.51;101224.53;5110146;23;20061;-69
2023/04/11 09:11:07;;;;;;;8.25;2.00;;;;;;;13.21;56.59;101225.13;4923064;28;20036;-74
2023/04/11 09:13:33;;;;;;;10.55;2.45;;;;;;;13.40;55.52;101223.06;4948941;29;20047;-76
2023/04/11 09:16:11;;;;;;;8.50;2.03;;;;;;;13.71;55.31;101230.41;4939924;28;20502;-74
2023/04/11 09:18:41;;;;;;;8.07;1.88;;;;;;;13.85;54.85;101230.16;4949195;28;20034;-74
2023/04/11 09:21:09;;;;;;;;;;;;;;;13.95;54.37;101238.75;4938543;29;20027;-75
2023/04/11 09:23:35;;;;;;;9.38;1.70;;;;;;;13.97;51.17;101236.97;4949913;28;19980;-75
2023/04/11 09:26:01;;;;;;;11.98;2.22;;;;;;;14.19;51.03;101234.75;4970434;28;20038;-75
2023/04/11 09:28:26;;;;;;;8.60;1.75;;;;;;;14.27;49.30;101230.19;4922738;28;20038;-75
2023/04/11 09:30:54;;;;;;;8.85;1.67;;;;;;;14.49;50.69;101243.78;4938749;28;20043;-75
2023/04/11 09:33:21;;;;;;;11.38;2.35;;;;;;;14.61;49.53;101225.97;4938204;28;20039;-75
2023/04/11 09:35:48;;;;;;;5.70;1.60;;;;;;;14.71;48.72;101243.34;4954597;28;20495;-75
2023/04/11 09:38:13;;;;;;;11.13;1.80;;;;;;;14.87;47.82;101236.81;4954276;28;20088;-75
2023/04/11 09:40:42;;;;;;;9.18;1.63;;;;;;;14.60;46.79;101243.56;4939849;28;20443;-76
2023/04/11 09:43:08;;;;;;;8.05;1.67;;;;;;;14.55;48.35;101254.22;4950012;28;20035;-75
2023/04/11 09:45:33;;;;;;;10.25;2.03;;;;;;;14.35;47.35;101246.72;4924902;28;20515;-75
2023/04/11 09:47:59;;;;;;;9.82;1.73;;;;;;;14.61;50.64;101249.69;4932629;28;20415;-74
2023/04/11 09:50:26;;;;;;;9.50;2.05;;;;;;;14.59;49.00;101249.72;4931537;28;20050;-74
2023/04/11 09:52:54;;;;;;;10.68;2.00;;;;;;;14.62;48.15;101254.09;4946513;28;20035;-75
2023/04/11 09:55:21;;;;;;;9.60;1.70;;;;;;;14.37;47.86;101257.25;4945817;28;20035;-74
2023/04/11 09:57:49;;;;;;;8.25;1.90;;;;;;;14.64;50.12;101252.28;4951939;28;20408;-75
2023/04/11 10:00:18;;;;;;;11.10;1.70;;;;;;;14.66;49.00;101247.88;4942778;28;20039;-74
2023/04/11 10:02:47;;;;;;;8.65;1.70;;;;;;;14.82;48.01;101254.50;4938227;28;20042;-75
2023/04/11 10:05:14;;;;;;;7.63;1.90;;;;;;;15.01;50.97;101254.97;4946049;28;20480;-75
2023/04/11 10:07:52;;;;;;;9.55;1.83;;;;;;;15.02;46.40;101247.91;4959818;28;20051;-69
2023/04/11 10:10:22;;;;;;;8.02;1.65;;;;;;;14.71;46.76;101259.16;4940185;28;20112;-68
2023/04/11 10:12:49;;;;;;;10.02;1.80;;;;;;;14.80;47.74;101256.34;4962739;28;20495;-69
2023/04/11 10:15:15;;;;;;;8.02;2.42;;;;;;;14.77;46.96;101251.13;4938125;28;20034;-69
2023/04/11 10:17:41;;;;;;;12.70;1.92;;;;;;;14.62;47.42;101254.09;4928755;28;20407;-69
2023/04/11 10:20:34;;;;;;;7.38;1.67;;;;;;;14.63;48.68;101261.13;4935424;28;20036;-70
2023/04/11 10:23:01;;;;;;;8.43;1.98;;;;;;;14.27;46.37;101263.59;4940967;28;20089;-69
2023/04/11 10:25:27;;;;;;;10.25;1.92;;;;;;;14.09;46.34;101262.19;4948313;28;20125;-69
2023/04/11 10:28:03;;;;;;;7.63;1.60;;;;;;;14.06;49.37;101265.75;4933069;28;20035;-70
2023/04/11 10:30:44;;;;;;;9.77;1.88;;;;;;;14.28;49.12;101252.16;4947456;28;20097;-70
2023/04/11 10:33:16;;;;;;;6.78;2.08;;;;;;;14.45;49.14;101246.53;4950488;28;20046;-69
2023/04/11 10:36:03;;;;;;;8.63;1.90;;;;;;;14.52;47.71;101253.41;4943378;28;20034;-69
2023/04/11 10:38:47;;;;;;;9.85;2.05;;;;;;;14.66;47.96;101266.34;4946302;29;20053;-70
2023/04/11 10:41:24;;;;;;;6.35;1.52;;;;;;;14.98;47.69;101262.09;4939512;28;20031;-75
2023/04/11 10:43:50;;;;;;;9.38;1.73;;;;;;;15.07;44.20;101261.88;4965906;28;20047;-75
2023/04/11 10:46:20;;;;;;;11.13;2.25;;;;;;;14.98;43.40;101240.97;4928396;28;20483;-75
2023/04/11 10:49:03;;;;;;;10.18;2.00;;;;;;;14.99;46.64;101253.28;4943994;28;20103;-75
2023/04/11 10:51:33;;;;;;;9.82;2.00;;;;;;;14.87;44.02;101263.22;4945856;28;20045;-77
2023/04/11 10:53:59;;;;;;;8.23;1.95;;;;;;;15.13;47.28;101251.16;4948322;29;20403;-75
2023/04/11 10:56:45;;;;;;;9.25;1.75;;;;;;;15.10;47.29;101264.44;4930759;28;20032;-74
2023/04/11 10:59:35;;;;;;;8.73;1.75;;;;;;;15.18;45.84;101265.09;4949858;28;20074;-75
2023/04/11 11:02:01;;;;;;;6.45;1.67;;;;;;;15.07;43.71;101256.59;4950378;28;20110;-77
2023/04/11 11:04:38;;;;;;;7.32;1.83;;;;;;;15.15;43.62;101256.41;4928203;28;20134;-76
2023/04/11 11:07:14;;;;;;;9.90;1.60;;;;;;;14.71;42.22;101275.00;4947472;28;20038;-76
2023/04/11 11:09:47;;;;;;;6.20;1.50;;;;;;;14.75;44.57;101276.66;4946872;28;20106;-75
2023/04/11 11:12:15;;;;;;;6.47;1.65;;;;;;;14.69;43.71;101282.94;4942297;28;20027;-76
2023/04/11 11:14:46;;;;;;;8.32;1.73;;;;;;;14.80;45.66;101279.22;4943340;28;20443;-75
2023/04/11 11:17:13;;;;;;;9.57;1.60;;;;;;;14.94;47.45;101270.97;4935808;28;20042;-75
2023/04/11 11:19:44;;;;;;;9.45;1.75;;;;;;;15.24;47.05;101275.53;4947318;28;20052;-75
2023/04/11 11:22:16;;;;;;;;;;;;;;;15.27;45.07;101265.81;4945644;28;20130;-76
2023/04/11 11:24:42;;;;;;;8.98;1.42;;;;;;;15.19;45.71;101271.28;4953499;28;19944;-75
2023/04/11 11:27:18;;;;;;;6.15;1.40;;;;;;;15.08;43.53;101274.16;4935426;28;20384;-76
2023/04/11 11:29:51;;;;;;;7.20;1.27;;;;;;;14.97;43.84;101276.19;4930115;28;20077;-70
2023/04/11 11:32:23;;;;;;;6.32;1.45;;;;;;;15.04;45.99;101272.50;4940690;28;20042;-71
2023/04/11 11:34:51;;;;;;;8.98;1.55;;;;;;;14.49;42.10;101282.47;4930411;28;20057;-71
2023/04/11 11:37:17;;;;;;;8.32;1.48;;;;;;;14.21;42.05;101278.63;4949503;28;20043;-70
2023/04/11 11:39:42;;;;;;;7.93;1.58;;;;;;;14.15;42.29;101270.88;4921568;28;20043;-71
2023/04/11 11:42:08;;;;;;;5.35;1.20;;;;;;;14.46;44.61;101275.50;4916456;28;20102;-76